sensor_id;sensor_type;location;lat;lon;timestamp;temperature;humidity
8402;DHT22;4238;48.404;9.498;2022-09-09T00:01:47;10.80;99.90
8402;DHT22;4238;48.404;9.498;2022-09-09T00:04:25;10.90;99.90
8402;DHT22;4238;48.404;9.498;2022-09-09T00:06:59;10.80;99.90
8402;DHT22;4238;48.404;9.498;2022-09-09T00:09:29;10.80;99.90
8402;DHT22;4238;48.404;9.498;2022-09-09T00:12:02;10.70;99.90
8402;DHT22;4238;48.404;9.498;2022-09-09T00:14:37;10.80;99.90
8402;DHT22;4238;48.404;9.498;2022-09-09T00:17:11;10.80;99.90
8402;DHT22;4238;48.404;9.498;2022-09-09T00:19:46;10.60;99.90
8402;DHT22;4238;48.404;9.498;2022-09-09T00:22:17;10.70;99.90
8402;DHT22;4238;48.404;9.498;2022-09-09T00:24:46;10.60;99.90
8402;DHT22;4238;48.404;9.498;2022-09-09T00:27:21;10.60;99.90
8402;DHT22;4238;48.404;9.498;2022-09-09T00:29:53;10.60;99.90
8402;DHT22;4238;48.404;9.498;2022-09-09T00:32:21;10.70;99.90
8402;DHT22;4238;48.404;9.498;2022-09-09T00:34:54;10.80;99.90
8402;DHT22;4238;48.404;9.498;2022-09-09T00:37:23;10.90;99.90
8402;DHT22;4238;48.404;9.498;2022-09-09T00:39:52;11.00;99.90
8402;DHT22;4238;48.404;9.498;2022-09-09T00:42:25;11.00;99.90
8402;DHT22;4238;48.404;9.498;2022-09-09T00:45:01;11.10;99.80
8402;DHT22;4238;48.404;9.498;2022-09-09T00:47:44;11.10;99.10
8402;DHT22;4238;48.404;9.498;2022-09-09T00:50:35;11.00;98.00
8402;DHT22;4238;48.404;9.498;2022-09-09T00:53:22;11.00;99.90
8402;DHT22;4238;48.404;9.498;2022-09-09T00:55:56;10.90;99.70
8402;DHT22;4238;48.404;9.498;2022-09-09T00:58:27;10.90;99.90
8402;DHT22;4238;48.404;9.498;2022-09-09T01:00:57;11.00;99.30
8402;DHT22;4238;48.404;9.498;2022-09-09T01:03:34;11.00;97.00
8402;DHT22;4238;48.404;9.498;2022-09-09T01:06:12;11.00;97.50
8402;DHT22;4238;48.404;9.498;2022-09-09T01:09:04;11.00;97.60
8402;DHT22;4238;48.404;9.498;2022-09-09T01:11:49;11.00;98.80
8402;DHT22;4238;48.404;9.498;2022-09-09T01:14:27;10.90;99.30
8402;DHT22;4238;48.404;9.498;2022-09-09T01:17:00;10.80;99.90
8402;DHT22;4238;48.404;9.498;2022-09-09T01:19:39;10.80;99.90
8402;DHT22;4238;48.404;9.498;2022-09-09T01:22:15;10.70;99.90
8402;DHT22;4238;48.404;9.498;2022-09-09T01:25:01;10.70;99.90
8402;DHT22;4238;48.404;9.498;2022-09-09T01:27:36;10.60;99.90
8402;DHT22;4238;48.404;9.498;2022-09-09T01:30:07;10.50;99.90
8402;DHT22;4238;48.404;9.498;2022-09-09T01:32:42;10.40;99.90
8402;DHT22;4238;48.404;9.498;2022-09-09T01:35:12;10.30;99.90
8402;DHT22;4238;48.404;9.498;2022-09-09T01:37:39;10.40;99.90
8402;DHT22;4238;48.404;9.498;2022-09-09T01:40:07;10.30;99.90
8402;DHT22;4238;48.404;9.498;2022-09-09T01:42:36;10.30;99.90
8402;DHT22;4238;48.404;9.498;2022-09-09T01:45:04;10.30;99.90
8402;DHT22;4238;48.404;9.498;2022-09-09T01:47:31;10.20;99.90
8402;DHT22;4238;48.404;9.498;2022-09-09T01:49:58;10.20;99.90
8402;DHT22;4238;48.404;9.498;2022-09-09T01:52:26;10.20;99.90
8402;DHT22;4238;48.404;9.498;2022-09-09T01:54:53;10.20;99.90
8402;DHT22;4238;48.404;9.498;2022-09-09T01:57:24;10.10;99.90
8402;DHT22;4238;48.404;9.498;2022-09-09T02:00:02;10.10;99.90
8402;DHT22;4238;48.404;9.498;2022-09-09T02:02:35;10.00;99.90
8402;DHT22;4238;48.404;9.498;2022-09-09T02:05:10;10.10;99.90
8402;DHT22;4238;48.404;9.498;2022-09-09T02:07:40;10.10;99.90
8402;DHT22;4238;48.404;9.498;2022-09-09T02:10:11;10.10;99.90
8402;DHT22;4238;48.404;9.498;2022-09-09T02:12:42;10.20;99.90
8402;DHT22;4238;48.404;9.498;2022-09-09T02:15:17;10.10;99.90
8402;DHT22;4238;48.404;9.498;2022-09-09T02:17:47;10.20;99.90
8402;DHT22;4238;48.404;9.498;2022-09-09T02:20:18;10.20;99.90
8402;DHT22;4238;48.404;9.498;2022-09-09T02:22:48;10.20;99.90
8402;DHT22;4238;48.404;9.498;2022-09-09T02:25:19;10.20;99.90
8402;DHT22;4238;48.404;9.498;2022-09-09T02:27:49;10.20;99.90
8402;DHT22;4238;48.404;9.498;2022-09-09T02:30:19;10.30;99.90
8402;DHT22;4238;48.404;9.498;2022-09-09T02:32:47;10.30;99.90
8402;DHT22;4238;48.404;9.498;2022-09-09T02:35:18;10.30;99.90
8402;DHT22;4238;48.404;9.498;2022-09-09T02:37:47;10.30;99.90
8402;DHT22;4238;48.404;9.498;2022-09-09T02:40:16;10.30;99.90
8402;DHT22;4238;48.404;9.498;2022-09-09T02:42:44;10.30;99.90
8402;DHT22;4238;48.404;9.498;2022-09-09T02:45:15;10.40;99.90
8402;DHT22;4238;48.404;9.498;2022-09-09T02:47:48;10.50;99.90
8402;DHT22;4238;48.404;9.498;2022-09-09T02:50:21;10.50;99.90
8402;DHT22;4238;48.404;9.498;2022-09-09T02:52:58;10.60;99.90
8402;DHT22;4238;48.404;9.498;2022-09-09T02:55:35;10.70;99.90
8402;DHT22;4238;48.404;9.498;2022-09-09T02:58:05;10.80;99.90
8402;DHT22;4238;48.404;9.498;2022-09-09T03:00:34;10.90;99.90
8402;DHT22;4238;48.404;9.498;2022-09-09T03:03:03;11.10;99.90
8402;DHT22;4238;48.404;9.498;2022-09-09T03:05:30;11.30;99.90
8402;DHT22;4238;48.404;9.498;2022-09-09T03:07:58;11.30;99.90
8402;DHT22;4238;48.404;9.498;2022-09-09T03:10:25;11.30;99.90
8402;DHT22;4238;48.404;9.498;2022-09-09T03:12:51;11.50;99.90
8402;DHT22;4238;48.404;9.498;2022-09-09T03:15:18;11.60;99.90
8402;DHT22;4238;48.404;9.498;2022-09-09T03:17:46;11.60;99.90
8402;DHT22;4238;48.404;9.498;2022-09-09T03:20:14;11.60;99.90
8402;DHT22;4238;48.404;9.498;2022-09-09T03:22:41;11.60;99.90
8402;DHT22;4238;48.404;9.498;2022-09-09T03:25:09;11.70;99.90
8402;DHT22;4238;48.404;9.498;2022-09-09T03:27:36;11.80;99.90
8402;DHT22;4238;48.404;9.498;2022-09-09T03:30:03;12.00;99.90
8402;DHT22;4238;48.404;9.498;2022-09-09T03:32:31;11.90;99.90
8402;DHT22;4238;48.404;9.498;2022-09-09T03:34:58;11.90;99.90
8402;DHT22;4238;48.404;9.498;2022-09-09T03:37:26;12.00;99.90
8402;DHT22;4238;48.404;9.498;2022-09-09T03:39:53;12.10;99.90
8402;DHT22;4238;48.404;9.498;2022-09-09T03:42:20;12.10;99.90
8402;DHT22;4238;48.404;9.498;2022-09-09T03:44:48;12.10;99.90
8402;DHT22;4238;48.404;9.498;2022-09-09T03:47:16;12.20;99.90
8402;DHT22;4238;48.404;9.498;2022-09-09T03:49:44;12.20;99.90
8402;DHT22;4238;48.404;9.498;2022-09-09T03:52:12;12.30;99.90
8402;DHT22;4238;48.404;9.498;2022-09-09T03:54:40;12.30;99.90
8402;DHT22;4238;48.404;9.498;2022-09-09T03:57:08;12.30;99.90
8402;DHT22;4238;48.404;9.498;2022-09-09T03:59:35;12.30;99.90
8402;DHT22;4238;48.404;9.498;2022-09-09T04:02:02;12.10;99.90
8402;DHT22;4238;48.404;9.498;2022-09-09T04:04:29;12.20;99.90
8402;DHT22;4238;48.404;9.498;2022-09-09T04:06:56;12.30;99.90
8402;DHT22;4238;48.404;9.498;2022-09-09T04:09:23;12.40;99.90
8402;DHT22;4238;48.404;9.498;2022-09-09T04:11:52;12.50;99.90
8402;DHT22;4238;48.404;9.498;2022-09-09T04:14:19;12.50;99.90
8402;DHT22;4238;48.404;9.498;2022-09-09T04:16:46;12.60;99.90
8402;DHT22;4238;48.404;9.498;2022-09-09T04:19:14;12.60;99.90
8402;DHT22;4238;48.404;9.498;2022-09-09T04:21:41;12.50;99.90
8402;DHT22;4238;48.404;9.498;2022-09-09T04:24:08;12.50;99.90
8402;DHT22;4238;48.404;9.498;2022-09-09T04:26:36;12.40;99.90
8402;DHT22;4238;48.404;9.498;2022-09-09T04:29:05;12.40;99.90
8402;DHT22;4238;48.404;9.498;2022-09-09T04:31:32;12.40;99.90
8402;DHT22;4238;48.404;9.498;2022-09-09T04:33:59;12.30;99.90
8402;DHT22;4238;48.404;9.498;2022-09-09T04:36:30;12.40;99.90
8402;DHT22;4238;48.404;9.498;2022-09-09T04:38:58;12.50;99.90
8402;DHT22;4238;48.404;9.498;2022-09-09T04:41:25;12.60;99.90
8402;DHT22;4238;48.404;9.498;2022-09-09T04:43:52;12.70;99.90
8402;DHT22;4238;48.404;9.498;2022-09-09T04:46:21;12.70;99.90
8402;DHT22;4238;48.404;9.498;2022-09-09T04:48:48;12.70;99.90
8402;DHT22;4238;48.404;9.498;2022-09-09T04:51:15;12.70;99.90
8402;DHT22;4238;48.404;9.498;2022-09-09T04:53:42;12.70;99.90
8402;DHT22;4238;48.404;9.498;2022-09-09T04:56:11;12.50;99.90
8402;DHT22;4238;48.404;9.498;2022-09-09T04:58:39;12.40;99.90
8402;DHT22;4238;48.404;9.498;2022-09-09T05:01:09;12.30;99.90
8402;DHT22;4238;48.404;9.498;2022-09-09T05:03:37;12.40;99.90
8402;DHT22;4238;48.404;9.498;2022-09-09T05:06:06;12.40;99.90
8402;DHT22;4238;48.404;9.498;2022-09-09T05:08:34;12.50;99.90
8402;DHT22;4238;48.404;9.498;2022-09-09T05:11:01;12.40;99.90
8402;DHT22;4238;48.404;9.498;2022-09-09T05:13:29;12.50;99.90
8402;DHT22;4238;48.404;9.498;2022-09-09T05:15:57;12.50;99.90
8402;DHT22;4238;48.404;9.498;2022-09-09T05:18:24;12.50;99.90
8402;DHT22;4238;48.404;9.498;2022-09-09T05:20:58;12.40;99.90
8402;DHT22;4238;48.404;9.498;2022-09-09T05:23:25;12.40;99.90
8402;DHT22;4238;48.404;9.498;2022-09-09T05:25:57;12.40;99.90
8402;DHT22;4238;48.404;9.498;2022-09-09T05:28:24;12.60;99.90
8402;DHT22;4238;48.404;9.498;2022-09-09T05:30:59;12.70;99.90
8402;DHT22;4238;48.404;9.498;2022-09-09T05:33:26;12.70;99.90
8402;DHT22;4238;48.404;9.498;2022-09-09T05:35:59;12.70;99.90
8402;DHT22;4238;48.404;9.498;2022-09-09T05:38:27;12.70;99.90
8402;DHT22;4238;48.404;9.498;2022-09-09T05:40:54;12.80;99.90
8402;DHT22;4238;48.404;9.498;2022-09-09T05:43:22;12.80;99.90
8402;DHT22;4238;48.404;9.498;2022-09-09T05:45:59;12.80;99.90
8402;DHT22;4238;48.404;9.498;2022-09-09T05:48:28;12.90;99.90
8402;DHT22;4238;48.404;9.498;2022-09-09T05:50:56;13.00;99.90
8402;DHT22;4238;48.404;9.498;2022-09-09T05:53:24;13.10;99.90
8402;DHT22;4238;48.404;9.498;2022-09-09T05:55:59;13.10;99.90
8402;DHT22;4238;48.404;9.498;2022-09-09T05:58:27;13.20;99.90
8402;DHT22;4238;48.404;9.498;2022-09-09T06:01:01;13.30;99.90
8402;DHT22;4238;48.404;9.498;2022-09-09T06:03:28;13.30;99.90
8402;DHT22;4238;48.404;9.498;2022-09-09T06:05:59;13.40;99.90
8402;DHT22;4238;48.404;9.498;2022-09-09T06:08:27;13.40;99.90
8402;DHT22;4238;48.404;9.498;2022-09-09T06:11:01;13.50;99.90
8402;DHT22;4238;48.404;9.498;2022-09-09T06:13:29;13.60;99.90
8402;DHT22;4238;48.404;9.498;2022-09-09T06:15:56;13.70;99.90
8402;DHT22;4238;48.404;9.498;2022-09-09T06:18:24;13.80;99.90
8402;DHT22;4238;48.404;9.498;2022-09-09T06:20:55;13.90;99.90
8402;DHT22;4238;48.404;9.498;2022-09-09T06:23:23;13.90;99.90
8402;DHT22;4238;48.404;9.498;2022-09-09T06:25:52;14.00;99.90
8402;DHT22;4238;48.404;9.498;2022-09-09T06:28:26;14.00;99.90
8402;DHT22;4238;48.404;9.498;2022-09-09T06:30:57;14.10;99.90
8402;DHT22;4238;48.404;9.498;2022-09-09T06:33:24;14.10;99.90
8402;DHT22;4238;48.404;9.498;2022-09-09T06:35:52;14.20;99.90
8402;DHT22;4238;48.404;9.498;2022-09-09T06:38:19;14.20;99.90
8402;DHT22;4238;48.404;9.498;2022-09-09T06:40:52;14.20;99.90
8402;DHT22;4238;48.404;9.498;2022-09-09T06:43:20;14.60;99.90
8402;DHT22;4238;48.404;9.498;2022-09-09T06:45:53;14.70;99.90
8402;DHT22;4238;48.404;9.498;2022-09-09T06:48:21;14.80;99.90
8402;DHT22;4238;48.404;9.498;2022-09-09T06:50:48;14.90;99.90
8402;DHT22;4238;48.404;9.498;2022-09-09T06:53:16;15.20;99.90
8402;DHT22;4238;48.404;9.498;2022-09-09T06:55:45;15.40;94.90
8402;DHT22;4238;48.404;9.498;2022-09-09T06:58:13;15.50;99.90
8402;DHT22;4238;48.404;9.498;2022-09-09T07:00:40;15.90;93.80
8402;DHT22;4238;48.404;9.498;2022-09-09T07:03:07;16.40;76.10
8402;DHT22;4238;48.404;9.498;2022-09-09T07:05:36;16.60;61.70
8402;DHT22;4238;48.404;9.498;2022-09-09T07:08:03;16.80;66.30
8402;DHT22;4238;48.404;9.498;2022-09-09T07:10:30;16.60;61.10
8402;DHT22;4238;48.404;9.498;2022-09-09T07:12:59;16.50;60.30
8402;DHT22;4238;48.404;9.498;2022-09-09T07:15:29;16.40;65.70
8402;DHT22;4238;48.404;9.498;2022-09-09T07:17:55;16.30;84.10
8402;DHT22;4238;48.404;9.498;2022-09-09T07:20:27;16.20;86.00
8402;DHT22;4238;48.404;9.498;2022-09-09T07:22:55;15.90;76.00
8402;DHT22;4238;48.404;9.498;2022-09-09T07:25:22;16.00;83.80
8402;DHT22;4238;48.404;9.498;2022-09-09T07:27:49;16.00;83.00
8402;DHT22;4238;48.404;9.498;2022-09-09T07:30:16;15.90;92.10
8402;DHT22;4238;48.404;9.498;2022-09-09T07:32:45;15.90;84.10
8402;DHT22;4238;48.404;9.498;2022-09-09T07:35:11;15.80;89.60
8402;DHT22;4238;48.404;9.498;2022-09-09T07:37:38;15.90;93.80
8402;DHT22;4238;48.404;9.498;2022-09-09T07:40:07;16.10;89.90
8402;DHT22;4238;48.404;9.498;2022-09-09T07:42:34;16.90;74.20
8402;DHT22;4238;48.404;9.498;2022-09-09T07:45:01;17.50;36.10
8402;DHT22;4238;48.404;9.498;2022-09-09T07:47:29;17.20;33.20
8402;DHT22;4238;48.404;9.498;2022-09-09T07:49:57;17.20;24.00
8402;DHT22;4238;48.404;9.498;2022-09-09T07:52:24;16.80;42.40
8402;DHT22;4238;48.404;9.498;2022-09-09T07:54:52;16.90;41.30
8402;DHT22;4238;48.404;9.498;2022-09-09T07:57:19;16.80;40.80
8402;DHT22;4238;48.404;9.498;2022-09-09T07:59:46;16.80;43.40
8402;DHT22;4238;48.404;9.498;2022-09-09T08:02:13;17.00;47.90
8402;DHT22;4238;48.404;9.498;2022-09-09T08:04:40;17.10;27.20
8402;DHT22;4238;48.404;9.498;2022-09-09T08:07:08;16.90;49.60
8402;DHT22;4238;48.404;9.498;2022-09-09T08:09:36;17.00;36.90
8402;DHT22;4238;48.404;9.498;2022-09-09T08:12:03;17.20;48.90
8402;DHT22;4238;48.404;9.498;2022-09-09T08:14:32;17.30;50.50
8402;DHT22;4238;48.404;9.498;2022-09-09T08:16:59;17.40;35.90
8402;DHT22;4238;48.404;9.498;2022-09-09T08:19:26;17.40;25.40
8402;DHT22;4238;48.404;9.498;2022-09-09T08:21:54;17.50;25.40
8402;DHT22;4238;48.404;9.498;2022-09-09T08:24:23;17.50;27.90
8402;DHT22;4238;48.404;9.498;2022-09-09T08:26:49;17.70;16.50
8402;DHT22;4238;48.404;9.498;2022-09-09T08:29:16;17.90;3.80
8402;DHT22;4238;48.404;9.498;2022-09-09T08:31:45;18.10;1.00
8402;DHT22;4238;48.404;9.498;2022-09-09T08:34:12;17.90;2.90
8402;DHT22;4238;48.404;9.498;2022-09-09T08:36:41;17.70;1.10
8402;DHT22;4238;48.404;9.498;2022-09-09T08:39:10;17.90;7.00
8402;DHT22;4238;48.404;9.498;2022-09-09T08:42:08;17.80;1.00
8402;DHT22;4238;48.404;9.498;2022-09-09T08:44:46;18.00;17.70
8402;DHT22;4238;48.404;9.498;2022-09-09T08:47:21;18.00;4.20
8402;DHT22;4238;48.404;9.498;2022-09-09T08:50:02;17.70;1.00
8402;DHT22;4238;48.404;9.498;2022-09-09T08:52:40;17.60;7.80
8402;DHT22;4238;48.404;9.498;2022-09-09T08:55:19;17.60;5.20
8402;DHT22;4238;48.404;9.498;2022-09-09T08:57:51;17.50;19.80
8402;DHT22;4238;48.404;9.498;2022-09-09T09:00:19;17.40;2.90
8402;DHT22;4238;48.404;9.498;2022-09-09T09:02:53;17.40;2.70
8402;DHT22;4238;48.404;9.498;2022-09-09T09:05:28;17.40;15.60
8402;DHT22;4238;48.404;9.498;2022-09-09T09:08:06;17.10;10.60
8402;DHT22;4238;48.404;9.498;2022-09-09T09:10:45;17.10;33.70
8402;DHT22;4238;48.404;9.498;2022-09-09T09:13:17;16.90;30.00
8402;DHT22;4238;48.404;9.498;2022-09-09T09:15:50;16.90;25.60
8402;DHT22;4238;48.404;9.498;2022-09-09T09:18:19;17.00;22.00
8402;DHT22;4238;48.404;9.498;2022-09-09T09:20:52;17.20;28.80
8402;DHT22;4238;48.404;9.498;2022-09-09T09:23:22;17.30;14.40
8402;DHT22;4238;48.404;9.498;2022-09-09T09:25:53;17.20;20.20
8402;DHT22;4238;48.404;9.498;2022-09-09T09:28:26;17.30;14.90
8402;DHT22;4238;48.404;9.498;2022-09-09T09:30:56;17.30;16.00
8402;DHT22;4238;48.404;9.498;2022-09-09T09:33:27;17.50;1.00
8402;DHT22;4238;48.404;9.498;2022-09-09T09:35:57;17.70;1.00
8402;DHT22;4238;48.404;9.498;2022-09-09T09:38:26;18.00;1.00
8402;DHT22;4238;48.404;9.498;2022-09-09T09:40:55;18.60;1.00
8402;DHT22;4238;48.404;9.498;2022-09-09T09:43:27;18.50;1.00
8402;DHT22;4238;48.404;9.498;2022-09-09T09:45:54;18.90;1.00
8402;DHT22;4238;48.404;9.498;2022-09-09T09:48:24;19.30;1.00
8402;DHT22;4238;48.404;9.498;2022-09-09T09:50:52;19.80;1.00
8402;DHT22;4238;48.404;9.498;2022-09-09T09:53:23;20.30;1.00
8402;DHT22;4238;48.404;9.498;2022-09-09T09:55:54;20.20;99.90
8402;DHT22;4238;48.404;9.498;2022-09-09T09:58:22;20.10;99.90
8402;DHT22;4238;48.404;9.498;2022-09-09T10:00:52;20.60;99.90
8402;DHT22;4238;48.404;9.498;2022-09-09T10:03:23;20.50;1.00
8402;DHT22;4238;48.404;9.498;2022-09-09T10:05:50;20.40;1.00
8402;DHT22;4238;48.404;9.498;2022-09-09T10:08:17;20.30;1.00
8402;DHT22;4238;48.404;9.498;2022-09-09T10:11:07;20.10;99.90
8402;DHT22;4238;48.404;9.498;2022-09-09T10:13:47;19.90;99.90
8402;DHT22;4238;48.404;9.498;2022-09-09T10:16:33;19.70;99.90
8402;DHT22;4238;48.404;9.498;2022-09-09T10:19:08;19.60;99.90
8402;DHT22;4238;48.404;9.498;2022-09-09T10:24:58;19.80;99.90
8402;DHT22;4238;48.404;9.498;2022-09-09T10:27:35;20.00;99.90
8402;DHT22;4238;48.404;9.498;2022-09-09T10:30:12;20.10;1.00
8402;DHT22;4238;48.404;9.498;2022-09-09T10:32:46;19.70;1.00
8402;DHT22;4238;48.404;9.498;2022-09-09T10:35:30;19.50;1.00
8402;DHT22;4238;48.404;9.498;2022-09-09T10:38:20;19.20;99.90
8402;DHT22;4238;48.404;9.498;2022-09-09T10:41:11;19.10;1.00
8402;DHT22;4238;48.404;9.498;2022-09-09T10:46:37;20.00;4.10
8402;DHT22;4238;48.404;9.498;2022-09-09T10:49:17;20.90;53.90
8402;DHT22;4238;48.404;9.498;2022-09-09T10:51:55;21.70;99.90
8402;DHT22;4238;48.404;9.498;2022-09-09T10:54:40;22.00;1.00
8402;DHT22;4238;48.404;9.498;2022-09-09T10:57:21;22.20;99.90
8402;DHT22;4238;48.404;9.498;2022-09-09T10:59:53;22.00;1.00
8402;DHT22;4238;48.404;9.498;2022-09-09T11:02:27;21.60;1.00
8402;DHT22;4238;48.404;9.498;2022-09-09T11:04:59;20.90;1.00
8402;DHT22;4238;48.404;9.498;2022-09-09T11:07:32;20.30;99.90
8402;DHT22;4238;48.404;9.498;2022-09-09T11:10:04;20.10;1.00
8402;DHT22;4238;48.404;9.498;2022-09-09T11:12:34;19.90;1.00
8402;DHT22;4238;48.404;9.498;2022-09-09T11:15:06;20.00;1.00
8402;DHT22;4238;48.404;9.498;2022-09-09T11:17:38;20.40;1.00
8402;DHT22;4238;48.404;9.498;2022-09-09T11:20:11;20.90;99.90
8402;DHT22;4238;48.404;9.498;2022-09-09T11:22:45;21.60;99.90
8402;DHT22;4238;48.404;9.498;2022-09-09T11:25:16;21.80;99.90
8402;DHT22;4238;48.404;9.498;2022-09-09T11:27:58;22.20;99.90
8402;DHT22;4238;48.404;9.498;2022-09-09T11:30:38;22.50;99.90
8402;DHT22;4238;48.404;9.498;2022-09-09T11:33:47;22.70;99.90
8402;DHT22;4238;48.404;9.498;2022-09-09T11:36:34;22.90;22.80
8402;DHT22;4238;48.404;9.498;2022-09-09T11:39:16;23.00;1.00
8402;DHT22;4238;48.404;9.498;2022-09-09T11:41:44;23.10;1.00
8402;DHT22;4238;48.404;9.498;2022-09-09T11:44:13;23.20;1.00
8402;DHT22;4238;48.404;9.498;2022-09-09T11:46:46;22.90;1.00
8402;DHT22;4238;48.404;9.498;2022-09-09T11:49:27;22.70;1.00
8402;DHT22;4238;48.404;9.498;2022-09-09T11:51:55;22.40;1.00
8402;DHT22;4238;48.404;9.498;2022-09-09T11:54:29;21.90;1.00
8402;DHT22;4238;48.404;9.498;2022-09-09T11:56:56;21.40;1.00
8402;DHT22;4238;48.404;9.498;2022-09-09T11:59:24;21.30;1.00
8402;DHT22;4238;48.404;9.498;2022-09-09T12:01:55;21.80;1.00
8402;DHT22;4238;48.404;9.498;2022-09-09T12:04:33;22.10;1.00
8402;DHT22;4238;48.404;9.498;2022-09-09T12:07:20;22.30;1.00
8402;DHT22;4238;48.404;9.498;2022-09-09T12:09:52;22.60;1.00
8402;DHT22;4238;48.404;9.498;2022-09-09T12:12:29;22.50;1.00
8402;DHT22;4238;48.404;9.498;2022-09-09T12:15:20;22.50;1.00
8402;DHT22;4238;48.404;9.498;2022-09-09T12:17:48;22.50;1.00
8402;DHT22;4238;48.404;9.498;2022-09-09T12:20:19;22.90;1.00
8402;DHT22;4238;48.404;9.498;2022-09-09T12:23:24;22.80;1.00
8402;DHT22;4238;48.404;9.498;2022-09-09T12:26:10;22.90;1.00
8402;DHT22;4238;48.404;9.498;2022-09-09T12:28:46;22.80;1.00
8402;DHT22;4238;48.404;9.498;2022-09-09T12:31:20;22.90;1.00
8402;DHT22;4238;48.404;9.498;2022-09-09T12:33:48;23.00;1.00
8402;DHT22;4238;48.404;9.498;2022-09-09T12:36:18;22.90;1.00
8402;DHT22;4238;48.404;9.498;2022-09-09T12:38:47;22.80;1.00
8402;DHT22;4238;48.404;9.498;2022-09-09T12:41:20;23.00;1.00
8402;DHT22;4238;48.404;9.498;2022-09-09T12:43:47;23.40;1.00
8402;DHT22;4238;48.404;9.498;2022-09-09T12:46:22;23.10;1.00
8402;DHT22;4238;48.404;9.498;2022-09-09T12:48:53;22.60;1.00
8402;DHT22;4238;48.404;9.498;2022-09-09T12:51:24;22.10;1.00
8402;DHT22;4238;48.404;9.498;2022-09-09T12:53:54;22.20;1.00
8402;DHT22;4238;48.404;9.498;2022-09-09T12:56:23;22.00;1.00
8402;DHT22;4238;48.404;9.498;2022-09-09T12:58:53;21.80;1.00
8402;DHT22;4238;48.404;9.498;2022-09-09T13:01:23;21.70;1.00
8402;DHT22;4238;48.404;9.498;2022-09-09T13:03:50;21.60;1.00
8402;DHT22;4238;48.404;9.498;2022-09-09T13:06:20;21.40;1.00
8402;DHT22;4238;48.404;9.498;2022-09-09T13:08:49;21.10;19.60
8402;DHT22;4238;48.404;9.498;2022-09-09T13:11:20;21.10;54.30
8402;DHT22;4238;48.404;9.498;2022-09-09T13:13:51;21.50;99.90
8402;DHT22;4238;48.404;9.498;2022-09-09T13:16:21;21.50;99.90
8402;DHT22;4238;48.404;9.498;2022-09-09T13:18:49;21.20;99.90
8402;DHT22;4238;48.404;9.498;2022-09-09T13:21:16;20.90;99.90
8402;DHT22;4238;48.404;9.498;2022-09-09T13:23:48;20.80;99.90
8402;DHT22;4238;48.404;9.498;2022-09-09T13:26:25;20.60;99.90
8402;DHT22;4238;48.404;9.498;2022-09-09T13:28:53;20.80;99.90
8402;DHT22;4238;48.404;9.498;2022-09-09T13:31:23;21.40;99.90
8402;DHT22;4238;48.404;9.498;2022-09-09T13:33:50;21.90;99.90
8402;DHT22;4238;48.404;9.498;2022-09-09T13:36:28;22.10;99.90
8402;DHT22;4238;48.404;9.498;2022-09-09T13:38:57;22.00;99.90
8402;DHT22;4238;48.404;9.498;2022-09-09T13:41:29;21.70;82.70
8402;DHT22;4238;48.404;9.498;2022-09-09T13:43:57;21.50;99.10
8402;DHT22;4238;48.404;9.498;2022-09-09T13:46:30;21.60;99.90
8402;DHT22;4238;48.404;9.498;2022-09-09T13:48:59;21.90;99.90
8402;DHT22;4238;48.404;9.498;2022-09-09T13:51:33;22.20;99.90
8402;DHT22;4238;48.404;9.498;2022-09-09T13:54:02;22.30;99.90
8402;DHT22;4238;48.404;9.498;2022-09-09T13:56:32;21.90;99.90
8402;DHT22;4238;48.404;9.498;2022-09-09T13:58:59;21.60;99.90
8402;DHT22;4238;48.404;9.498;2022-09-09T14:01:26;21.20;99.90
8402;DHT22;4238;48.404;9.498;2022-09-09T14:03:53;20.90;99.90
8402;DHT22;4238;48.404;9.498;2022-09-09T14:06:21;20.70;99.90
8402;DHT22;4238;48.404;9.498;2022-09-09T14:08:49;20.50;99.90
8402;DHT22;4238;48.404;9.498;2022-09-09T14:11:17;20.50;99.90
8402;DHT22;4238;48.404;9.498;2022-09-09T14:13:46;20.40;99.90
8402;DHT22;4238;48.404;9.498;2022-09-09T14:16:13;20.50;99.90
8402;DHT22;4238;48.404;9.498;2022-09-09T14:18:40;20.60;99.90
8402;DHT22;4238;48.404;9.498;2022-09-09T14:21:07;20.50;99.90
8402;DHT22;4238;48.404;9.498;2022-09-09T14:23:35;20.70;99.90
8402;DHT22;4238;48.404;9.498;2022-09-09T14:26:03;21.10;99.90
8402;DHT22;4238;48.404;9.498;2022-09-09T14:28:30;21.10;99.90
8402;DHT22;4238;48.404;9.498;2022-09-09T14:31:01;20.80;78.50
8402;DHT22;4238;48.404;9.498;2022-09-09T14:33:28;20.50;99.90
8402;DHT22;4238;48.404;9.498;2022-09-09T14:35:56;20.20;99.90
8402;DHT22;4238;48.404;9.498;2022-09-09T14:38:23;20.10;99.90
8402;DHT22;4238;48.404;9.498;2022-09-09T14:40:50;20.20;99.90
8402;DHT22;4238;48.404;9.498;2022-09-09T14:43:17;20.20;99.90
8402;DHT22;4238;48.404;9.498;2022-09-09T14:45:44;20.30;99.90
8402;DHT22;4238;48.404;9.498;2022-09-09T14:48:12;20.70;99.90
8402;DHT22;4238;48.404;9.498;2022-09-09T14:50:40;20.80;99.90
8402;DHT22;4238;48.404;9.498;2022-09-09T14:53:07;20.50;99.90
8402;DHT22;4238;48.404;9.498;2022-09-09T14:55:34;20.60;99.90
8402;DHT22;4238;48.404;9.498;2022-09-09T14:58:01;20.60;99.90
8402;DHT22;4238;48.404;9.498;2022-09-09T15:00:28;20.70;99.90
8402;DHT22;4238;48.404;9.498;2022-09-09T15:02:55;20.90;99.90
8402;DHT22;4238;48.404;9.498;2022-09-09T15:05:23;21.00;99.90
8402;DHT22;4238;48.404;9.498;2022-09-09T15:07:50;20.90;99.90
8402;DHT22;4238;48.404;9.498;2022-09-09T15:10:17;20.80;99.90
8402;DHT22;4238;48.404;9.498;2022-09-09T15:12:44;20.70;99.90
8402;DHT22;4238;48.404;9.498;2022-09-09T15:15:11;20.70;99.90
8402;DHT22;4238;48.404;9.498;2022-09-09T15:17:39;20.80;52.80
8402;DHT22;4238;48.404;9.498;2022-09-09T15:20:06;21.00;50.90
8402;DHT22;4238;48.404;9.498;2022-09-09T15:22:35;21.10;82.80
8402;DHT22;4238;48.404;9.498;2022-09-09T15:25:04;21.10;29.40
8402;DHT22;4238;48.404;9.498;2022-09-09T15:27:31;21.10;25.40
8402;DHT22;4238;48.404;9.498;2022-09-09T15:29:59;20.80;10.20
8402;DHT22;4238;48.404;9.498;2022-09-09T15:32:26;20.50;10.20
8402;DHT22;4238;48.404;9.498;2022-09-09T15:34:54;20.20;1.00
8402;DHT22;4238;48.404;9.498;2022-09-09T15:37:20;20.00;25.50
8402;DHT22;4238;48.404;9.498;2022-09-09T15:39:49;20.00;99.90
8402;DHT22;4238;48.404;9.498;2022-09-09T15:42:16;19.90;99.90
8402;DHT22;4238;48.404;9.498;2022-09-09T15:44:42;19.80;99.90
8402;DHT22;4238;48.404;9.498;2022-09-09T15:47:11;19.60;99.90
8402;DHT22;4238;48.404;9.498;2022-09-09T15:49:39;19.50;99.90
8402;DHT22;4238;48.404;9.498;2022-09-09T15:52:06;19.60;99.90
8402;DHT22;4238;48.404;9.498;2022-09-09T15:54:34;19.80;99.90
8402;DHT22;4238;48.404;9.498;2022-09-09T15:57:04;19.70;99.90
8402;DHT22;4238;48.404;9.498;2022-09-09T15:59:32;19.50;99.90
8402;DHT22;4238;48.404;9.498;2022-09-09T16:02:00;19.40;99.90
8402;DHT22;4238;48.404;9.498;2022-09-09T16:04:27;19.20;62.90
8402;DHT22;4238;48.404;9.498;2022-09-09T16:06:55;18.90;45.80
8402;DHT22;4238;48.404;9.498;2022-09-09T16:09:24;18.80;91.90
8402;DHT22;4238;48.404;9.498;2022-09-09T16:11:51;18.70;99.90
8402;DHT22;4238;48.404;9.498;2022-09-09T16:14:20;18.60;99.90
8402;DHT22;4238;48.404;9.498;2022-09-09T16:16:47;18.50;99.90
8402;DHT22;4238;48.404;9.498;2022-09-09T16:19:14;18.50;99.90
8402;DHT22;4238;48.404;9.498;2022-09-09T16:21:43;18.40;99.90
8402;DHT22;4238;48.404;9.498;2022-09-09T16:24:11;18.40;99.90
8402;DHT22;4238;48.404;9.498;2022-09-09T16:26:42;18.40;99.90
8402;DHT22;4238;48.404;9.498;2022-09-09T16:29:10;18.20;99.90
8402;DHT22;4238;48.404;9.498;2022-09-09T16:31:39;18.10;99.90
8402;DHT22;4238;48.404;9.498;2022-09-09T16:34:07;18.10;99.90